Time;durP1;ratioP1;P1;durP2;ratioP2;P2;SDS_P1;SDS_P2;PMS_P1;PMS_P2;Temp;Humidity;BMP_temperature;BMP_pressure;BME280_temperature;BME280_humidity;BME280_pressure;Samples;Min_cycle;Max_cycle;Signal;HPM_P1;HPM_P2
2023/09/04 00:01:01;;;;;;;23.48;16.23;;;;;;;25.68;58.74;101810.41;5002189;28;20606;-81
2023/09/04 00:03:28;;;;;;;23.35;15.85;;;;;;;25.77;59.12;101821.91;4999473;28;20088;-80
2023/09/04 00:05:55;;;;;;;22.20;14.80;;;;;;;25.76;59.20;101834.66;4996556;28;20045;-80
2023/09/04 00:08:26;;;;;;;22.08;15.90;;;;;;;25.76;59.27;101844.72;5003353;28;20491;-80
2023/09/04 00:10:53;;;;;;;21.85;14.55;;;;;;;25.58;59.52;101816.25;5007933;28;20057;-79
2023/09/04 00:13:26;;;;;;;16.73;14.82;;;;;;;25.72;59.82;101835.28;4983527;28;20382;-80
2023/09/04 00:15:58;;;;;;;18.17;14.85;;;;;;;25.66;59.99;101834.25;5000556;28;20045;-80
2023/09/04 00:18:27;;;;;;;25.38;15.77;;;;;;;25.57;60.10;101830.03;4989063;28;20400;-80
2023/09/04 00:20:54;;;;;;;33.85;16.40;;;;;;;25.70;60.25;101857.25;5003343;28;20107;-80
2023/09/04 00:23:21;;;;;;;20.15;17.15;;;;;;;25.65;60.33;101846.16;4998846;28;20053;-81
2023/09/04 00:25:48;;;;;;;26.17;18.92;;;;;;;25.68;60.66;101853.91;5001797;28;20124;-81
2023/09/04 00:28:18;;;;;;;27.70;16.52;;;;;;;25.48;60.43;101826.66;5007900;28;20329;-79
2023/09/04 00:30:45;;;;;;;28.67;16.90;;;;;;;25.59;60.45;101845.09;4999300;28;20053;-79
2023/09/04 00:33:12;;;;;;;26.80;17.27;;;;;;;25.72;60.37;101859.75;4997872;28;20117;-81
2023/09/04 00:35:38;;;;;;;26.50;17.73;;;;;;;25.54;60.59;101835.91;5003447;28;20049;-80
2023/09/04 00:38:05;;;;;;;26.92;16.55;;;;;;;25.61;60.85;101849.47;4990429;28;20160;-81
2023/09/04 00:40:32;;;;;;;20.73;16.13;;;;;;;25.38;60.68;101815.34;4988504;28;20049;-80
2023/09/04 00:42:59;;;;;;;22.85;16.25;;;;;;;25.54;60.89;101844.06;4979241;28;20099;-79
2023/09/04 00:45:26;;;;;;;22.33;14.93;;;;;;;25.42;60.87;101815.78;4988194;28;20529;-80
2023/09/04 00:47:55;;;;;;;24.90;16.92;;;;;;;25.52;60.96;101835.25;4987303;28;20050;-81
2023/09/04 00:50:23;;;;;;;23.50;16.48;;;;;;;25.53;60.77;101839.66;5004099;28;20045;-80
2023/09/04 00:52:58;;;;;;;20.70;16.98;;;;;;;25.19;60.81;101795.22;5004908;28;20554;-81
2023/09/04 00:55:27;;;;;;;23.25;15.23;;;;;;;25.25;60.95;101818.88;5007699;28;20514;-80
2023/09/04 00:57:55;;;;;;;24.50;15.93;;;;;;;24.55;61.27;101719.56;5001672;28;20398;-79
2023/09/04 01:00:27;;;;;;;23.45;16.13;;;;;;;25.10;61.44;101812.75;4994237;28;20414;-80
2023/09/04 01:02:56;;;;;;;27.15;16.13;;;;;;;25.10;61.57;101826.34;5006265;28;20057;-80
2023/09/04 01:05:23;;;;;;;23.00;14.57;;;;;;;25.01;61.41;101816.69;4997590;28;20493;-79
2023/09/04 01:07:55;;;;;;;19.48;13.77;;;;;;;25.24;60.98;101843.53;5010141;28;20049;-80
2023/09/04 01:10:46;;;;;;;28.75;13.18;;;;;;;25.31;60.07;101847.94;5001213;28;20391;-80
2023/09/04 01:13:20;;;;;;;17.33;15.07;;;;;;;25.23;60.60;101833.72;5006110;28;20489;-80
2023/09/04 01:15:48;;;;;;;21.42;14.82;;;;;;;25.01;60.09;101789.50;5006398;28;20081;-81
2023/09/04 01:18:15;;;;;;;17.30;13.02;;;;;;;25.26;60.02;101842.28;4998459;28;20065;-80
2023/09/04 01:20:42;;;;;;;22.73;14.60;;;;;;;25.26;60.35;101839.56;5003322;28;20210;-79
2023/09/04 01:23:09;;;;;;;23.08;13.95;;;;;;;25.23;59.92;101831.84;4994410;28;20053;-81
2023/09/04 01:25:52;;;;;;;19.58;12.88;;;;;;;25.13;60.29;101817.75;5000956;28;20564;-80
2023/09/04 01:28:33;;;;;;;17.83;13.02;;;;;;;25.05;60.07;101810.63;5001167;28;20053;-80
2023/09/04 01:31:20;;;;;;;16.97;12.43;;;;;;;25.18;60.22;101820.75;4995193;28;20556;-80
2023/09/04 01:33:58;;;;;;;21.35;12.45;;;;;;;25.18;59.65;101820.75;5000021;28;20322;-80
2023/09/04 01:36:28;;;;;;;31.13;14.82;;;;;;;24.89;59.17;101773.78;4992548;28;20474;-80
2023/09/04 01:38:56;;;;;;;17.10;12.85;;;;;;;25.21;59.14;101806.72;4997301;28;20045;-81
2023/09/04 01:41:22;;;;;;;21.08;13.25;;;;;;;25.13;58.96;101785.16;4998881;28;20114;-80
2023/09/04 01:43:53;;;;;;;15.70;11.88;;;;;;;25.22;58.71;101808.44;4999244;28;20099;-81
2023/09/04 01:46:21;;;;;;;16.58;12.68;;;;;;;25.26;59.05;101823.25;4992968;28;20053;-80
2023/09/04 01:48:49;;;;;;;15.88;12.75;;;;;;;25.20;59.38;101821.38;4984267;28;20452;-81
2023/09/04 01:51:20;;;;;;;16.00;12.55;;;;;;;25.12;59.62;101829.66;4992034;28;20337;-79
2023/09/04 01:53:46;;;;;;;16.50;11.73;;;;;;;25.05;59.70;101818.78;5007402;28;20375;-80
2023/09/04 01:56:14;;;;;;;21.05;12.43;;;;;;;25.05;59.68;101831.50;4999680;28;20064;-81
2023/09/04 01:58:40;;;;;;;18.10;13.18;;;;;;;25.03;60.07;101822.75;4994924;28;20423;-81
2023/09/04 02:01:07;;;;;;;17.35;12.45;;;;;;;25.04;59.76;101825.25;4995465;28;20116;-80
2023/09/04 02:03:34;;;;;;;20.80;13.30;;;;;;;24.90;59.81;101794.50;4989839;28;20156;-79
2023/09/04 02:06:04;;;;;;;19.90;12.55;;;;;;;24.97;60.16;101812.69;5001143;28;20080;-80
2023/09/04 02:08:31;;;;;;;20.27;12.30;;;;;;;24.95;60.14;101810.16;4997619;28;20045;-79
2023/09/04 02:10:58;;;;;;;23.15;13.75;;;;;;;25.00;60.02;101809.56;5005773;28;20073;-79
2023/09/04 02:13:25;;;;;;;19.75;13.98;;;;;;;24.94;60.12;101800.34;5000518;28;20056;-81
2023/09/04 02:15:52;;;;;;;20.23;13.40;;;;;;;24.94;60.48;101800.34;4997443;28;20057;-80
2023/09/04 02:18:27;;;;;;;20.02;13.93;;;;;;;24.82;60.50;101783.78;5000900;28;20121;-81
2023/09/04 02:21:03;;;;;;;20.38;13.05;;;;;;;24.82;60.87;101789.22;5004023;28;20046;-80
2023/09/04 02:23:30;;;;;;;18.23;14.38;;;;;;;24.56;60.97;101743.75;5007717;28;20299;-80
2023/09/04 02:25:57;;;;;;;16.60;13.13;;;;;;;24.72;61.08;101776.00;5005570;28;20054;-80
2023/09/04 02:28:24;;;;;;;17.40;13.50;;;;;;;24.66;61.53;101768.69;5003883;28;20045;-80
2023/09/04 02:30:51;;;;;;;17.20;13.70;;;;;;;24.61;61.40;101754.03;5007408;28;20049;-80
2023/09/04 02:33:18;;;;;;;20.55;13.63;;;;;;;24.68;61.74;101763.03;5007470;28;20303;-79
2023/09/04 02:35:44;;;;;;;20.90;14.55;;;;;;;24.36;61.56;101707.53;4998703;28;20050;-81
2023/09/04 02:38:11;;;;;;;17.90;14.48;;;;;;;24.52;61.51;101734.38;5002598;28;20137;-79
2023/09/04 02:40:38;;;;;;;21.05;13.82;;;;;;;24.60;61.66;101746.94;5006656;28;20128;-81
2023/09/04 02:43:05;;;;;;;18.50;13.13;;;;;;;23.98;61.87;101649.13;5005478;28;20076;-80
2023/09/04 02:45:35;;;;;;;21.52;14.57;;;;;;;24.23;61.80;101681.16;5005586;28;20137;-81
2023/09/04 02:48:05;;;;;;;19.50;13.93;;;;;;;24.70;61.77;101759.06;5008082;28;20175;-81
2023/09/04 02:50:33;;;;;;;19.60;15.10;;;;;;;23.74;61.68;101601.63;5012711;28;20072;-80
2023/09/04 02:53:00;;;;;;;18.80;15.35;;;;;;;24.63;61.98;101751.94;5000768;28;20049;-79
2023/09/04 02:55:27;;;;;;;20.85;14.55;;;;;;;24.63;61.80;101754.66;5002776;28;20103;-80
2023/09/04 02:57:54;;;;;;;16.70;14.50;;;;;;;24.61;61.82;101754.03;5001573;28;20912;-80
2023/09/04 03:00:20;;;;;;;21.77;13.63;;;;;;;24.53;61.80;101747.72;5004825;28;20418;-81
2023/09/04 03:02:47;;;;;;;21.52;14.80;;;;;;;24.40;61.81;101725.91;5003912;28;20103;-79
2023/09/04 03:05:14;;;;;;;20.40;14.70;;;;;;;24.54;61.60;101748.59;5009565;28;20091;-80
2023/09/04 03:07:41;;;;;;;22.15;14.57;;;;;;;24.61;61.97;101756.75;4996608;28;20060;-80
2023/09/04 03:10:11;;;;;;;19.13;13.02;;;;;;;24.64;61.85;101749.03;4986054;28;20057;-79
2023/09/04 03:12:37;;;;;;;23.60;13.85;;;;;;;24.78;61.40;101749.09;4995431;28;20298;-80
2023/09/04 03:15:06;;;;;;;23.00;14.00;;;;;;;24.80;60.91;101750.56;4998642;28;20127;-79
2023/09/04 03:17:33;;;;;;;15.13;13.02;;;;;;;24.69;61.02;101743.84;5009125;28;20088;-80
2023/09/04 03:20:04;;;;;;;25.10;13.93;;;;;;;24.73;60.59;101738.81;4998941;28;20045;-80
2023/09/04 03:22:31;;;;;;;16.63;13.18;;;;;;;24.84;60.27;101748.28;5004146;28;20074;-79
2023/09/04 03:24:58;;;;;;;19.38;13.05;;;;;;;24.72;60.21;101739.88;4998675;28;20111;-80
2023/09/04 03:27:26;;;;;;;15.32;12.23;;;;;;;24.69;60.30;101746.56;4999128;28;20049;-81
2023/09/04 03:29:53;;;;;;;14.57;12.10;;;;;;;24.26;59.81;101654.47;4987092;28;20080;-81
2023/09/04 03:32:20;;;;;;;19.25;12.77;;;;;;;24.71;59.39;101733.63;4990555;28;20431;-78
2023/09/04 03:34:47;;;;;;;16.63;12.50;;;;;;;24.74;58.84;101743.25;4983087;28;20140;-81
2023/09/04 03:37:13;;;;;;;15.90;12.65;;;;;;;24.73;58.96;101757.84;5005064;28;20518;-80
2023/09/04 03:39:41;;;;;;;17.15;11.95;;;;;;;24.70;58.97;101769.09;4991693;28;20351;-80
2023/09/04 03:42:08;;;;;;;19.63;12.73;;;;;;;24.72;58.91;101767.03;5011942;28;20052;-80
2023/09/04 03:44:36;;;;;;;14.52;11.60;;;;;;;24.61;59.41;101764.88;5006951;28;20056;-81
2023/09/04 03:47:03;;;;;;;15.30;11.65;;;;;;;24.38;59.25;101721.75;5014623;28;20201;-80
2023/09/04 03:49:30;;;;;;;15.68;11.65;;;;;;;24.58;59.38;101759.88;5018418;28;20084;-79
2023/09/04 03:51:57;;;;;;;17.85;13.15;;;;;;;24.39;59.46;101740.50;5013198;28;20049;-80
2023/09/04 03:54:23;;;;;;;17.67;12.13;;;;;;;24.45;59.82;101764.16;5005943;28;20091;-79
2023/09/04 03:56:50;;;;;;;18.75;13.70;;;;;;;23.96;60.45;101708.13;4996642;28;20060;-81
2023/09/04 03:59:17;;;;;;;19.77;13.98;;;;;;;24.32;60.39;101766.78;4978158;28;20045;-80
2023/09/04 04:01:44;;;;;;;18.48;13.25;;;;;;;24.27;60.50;101775.53;4982103;28;20843;-79
2023/09/04 04:04:11;;;;;;;20.80;14.23;;;;;;;24.24;60.39;101780.50;4995966;28;20057;-82
2023/09/04 04:06:38;;;;;;;21.17;14.45;;;;;;;24.15;60.56;101754.56;4994796;28;20111;-81
2023/09/04 04:09:06;;;;;;;19.73;13.48;;;;;;;24.25;60.32;101772.19;4997010;28;20049;-81
2023/09/04 04:11:35;;;;;;;24.23;13.43;;;;;;;24.07;60.92;101767.25;5004743;28;20144;-80
2023/09/04 04:14:06;;;;;;;24.00;13.43;;;;;;;24.10;61.07;101775.00;4994840;28;20057;-81
2023/09/04 04:16:36;;;;;;;19.30;12.95;;;;;;;24.02;61.47;101783.28;4996319;28;20061;-81
2023/09/04 04:19:07;;;;;;;19.27;12.52;;;;;;;24.00;61.56;101785.34;5000390;28;20265;-80
2023/09/04 04:21:34;;;;;;;19.37;13.90;;;;;;;23.97;61.48;101788.44;5010524;28;20049;-80
2023/09/04 04:24:03;;;;;;;23.15;12.27;;;;;;;23.97;61.75;101783.03;5008930;28;20654;-80
2023/09/04 04:26:30;;;;;;;21.15;12.85;;;;;;;23.92;61.34;101771.09;4998468;28;20049;-79
2023/09/04 04:28:57;;;;;;;21.45;13.63;;;;;;;24.06;60.90;101795.41;4992558;28;20305;-81
2023/09/04 04:31:24;;;;;;;17.05;13.00;;;;;;;24.02;60.82;101787.84;4997821;28;20057;-78
2023/09/04 04:33:50;;;;;;;16.65;12.63;;;;;;;23.99;60.51;101791.81;5015984;28;20347;-80
2023/09/04 04:36:17;;;;;;;20.20;12.70;;;;;;;24.01;60.40;101795.16;5004812;28;20438;-79
2023/09/04 04:38:47;;;;;;;17.15;13.13;;;;;;;24.01;60.32;101786.19;5007746;28;20060;-80
2023/09/04 04:41:14;;;;;;;17.77;12.43;;;;;;;24.01;60.50;101806.00;5014286;28;20145;-79
2023/09/04 04:43:41;;;;;;;20.35;13.13;;;;;;;23.81;60.80;101758.91;4997936;28;20228;-81
2023/09/04 04:46:12;;;;;;;17.10;12.35;;;;;;;23.91;60.72;101804.66;5017983;28;20479;-82
2023/09/04 04:48:39;;;;;;;17.88;12.50;;;;;;;23.79;60.72;101777.25;5019921;28;20144;-82
2023/09/04 04:51:07;;;;;;;25.08;12.75;;;;;;;23.94;60.44;101802.41;5005907;28;20385;-80
2023/09/04 04:53:34;;;;;;;16.85;13.00;;;;;;;23.65;60.58;101755.41;5002128;28;20499;-81
2023/09/04 04:56:01;;;;;;;20.52;13.57;;;;;;;23.97;60.56;101802.00;4980958;28;20312;-80
2023/09/04 04:58:28;;;;;;;21.52;12.73;;;;;;;24.02;59.99;101804.13;4997904;28;20077;-80
2023/09/04 05:00:55;;;;;;;22.85;12.27;;;;;;;23.76;60.32;101772.19;5004096;28;20217;-80
2023/09/04 05:03:22;;;;;;;15.80;12.52;;;;;;;23.74;60.31;101767.00;5004623;28;20061;-79
2023/09/04 05:05:49;;;;;;;24.27;13.25;;;;;;;23.92;60.90;101809.06;4992994;28;20837;-81
2023/09/04 05:08:15;;;;;;;22.50;13.02;;;;;;;24.11;60.10;101824.66;4998563;28;20045;-80
2023/09/04 05:10:42;;;;;;;16.63;13.15;;;;;;;23.97;60.52;101818.28;4999634;28;20052;-80
2023/09/04 05:13:09;;;;;;;20.70;12.80;;;;;;;24.00;60.63;101823.31;5001262;28;20141;-82
2023/09/04 05:15:36;;;;;;;18.60;12.65;;;;;;;23.94;60.70;101818.69;5009686;28;20238;-79
2023/09/04 05:18:03;;;;;;;20.98;13.88;;;;;;;23.91;60.76;101813.66;5005396;28;20780;-80
2023/09/04 05:20:30;;;;;;;18.38;11.93;;;;;;;23.95;61.11;101825.78;5001544;28;20136;-80
2023/09/04 05:22:57;;;;;;;21.50;13.23;;;;;;;24.06;60.73;101832.56;5017673;28;20140;-80
2023/09/04 05:25:32;;;;;;;15.05;12.05;;;;;;;24.10;60.40;101828.38;5017902;28;20053;-81
2023/09/04 05:27:59;;;;;;;19.33;13.63;;;;;;;23.95;60.31;101808.66;4984005;28;20041;-81
2023/09/04 05:30:26;;;;;;;24.00;13.20;;;;;;;24.03;60.50;101830.22;4994532;28;20054;-81
2023/09/04 05:32:53;;;;;;;20.92;13.52;;;;;;;24.00;60.48;101828.72;5004471;28;20506;-80
2023/09/04 05:35:25;;;;;;;15.50;12.63;;;;;;;23.97;60.52;101826.41;5008934;28;20617;-80
2023/09/04 05:37:52;;;;;;;19.65;13.45;;;;;;;24.01;60.74;101830.44;5024598;28;20052;-81
2023/09/04 05:40:19;;;;;;;28.05;14.52;;;;;;;24.02;60.78;101832.09;5008909;28;20062;-81
2023/09/04 05:42:45;;;;;;;16.80;13.82;;;;;;;24.10;60.85;101834.69;4999006;28;20047;-82
2023/09/04 05:45:14;;;;;;;18.25;13.25;;;;;;;24.08;60.99;101836.75;4999995;28;20391;-81
2023/09/04 05:47:41;;;;;;;21.25;14.10;;;;;;;23.99;60.91;101815.38;4999552;28;20116;-81
2023/09/04 05:50:09;;;;;;;22.08;13.40;;;;;;;23.94;61.08;101815.97;4994101;28;20061;-80
2023/09/04 05:52:37;;;;;;;20.80;14.48;;;;;;;23.62;61.03;101755.81;4994680;28;20479;-80
2023/09/04 05:55:05;;;;;;;19.73;13.95;;;;;;;24.18;60.64;101835.56;4998898;28;20499;-79
2023/09/04 05:57:31;;;;;;;29.48;14.90;;;;;;;24.14;60.62;101818.84;4998893;28;20073;-80
2023/09/04 05:59:59;;;;;;;27.08;14.35;;;;;;;24.00;60.34;101800.78;4997703;28;20073;-79
2023/09/04 06:02:27;;;;;;;23.23;14.15;;;;;;;24.03;60.45;101806.66;5002751;28;20452;-81
2023/09/04 06:04:54;;;;;;;25.38;14.88;;;;;;;24.26;60.22;101832.69;5002398;28;20049;-80
2023/09/04 06:07:20;;;;;;;21.90;14.95;;;;;;;24.29;60.13;101837.72;5007820;28;20045;-81
2023/09/04 06:09:47;;;;;;;25.55;15.73;;;;;;;24.36;60.00;101835.91;5026515;28;20365;-81
2023/09/04 06:12:14;;;;;;;20.48;12.98;;;;;;;24.35;59.72;101828.81;5002425;28;20061;-81
2023/09/04 06:14:41;;;;;;;21.25;14.88;;;;;;;24.42;59.92;101842.41;5002501;28;20132;-80
2023/09/04 06:17:07;;;;;;;29.85;16.50;;;;;;;24.34;59.85;101823.56;4996210;28;20077;-81
2023/09/04 06:19:34;;;;;;;21.88;15.23;;;;;;;24.46;60.31;101838.28;4997043;28;20054;-80
2023/09/04 06:22:01;;;;;;;19.50;14.57;;;;;;;24.51;60.47;101842.09;5010452;28;20161;-82
2023/09/04 06:24:27;;;;;;;25.45;15.38;;;;;;;24.52;60.66;101841.06;5015188;28;20049;-80
2023/09/04 06:26:54;;;;;;;26.00;15.95;;;;;;;24.51;60.25;101825.78;5012002;28;20141;-81
2023/09/04 06:29:21;;;;;;;28.75;15.00;;;;;;;24.65;60.79;101840.31;4999728;28;20348;-81
2023/09/04 06:31:48;;;;;;;34.50;14.85;;;;;;;24.71;60.70;101846.78;5000903;28;20049;-82
2023/09/04 06:34:15;;;;;;;25.55;16.33;;;;;;;24.82;59.57;101843.53;5001103;28;20088;-81
2023/09/04 06:36:42;;;;;;;21.65;15.70;;;;;;;24.72;59.30;101810.47;5008540;28;20380;-81
2023/09/04 06:39:08;;;;;;;26.65;15.02;;;;;;;24.83;59.28;101815.34;4998963;28;20053;-81
2023/09/04 06:41:36;;;;;;;29.05;17.23;;;;;;;24.99;59.03;101829.63;4991906;28;20515;-82
2023/09/04 06:44:07;;;;;;;23.77;15.23;;;;;;;25.08;59.09;101831.97;5000089;28;20049;-83
2023/09/04 06:46:37;;;;;;;25.48;17.17;;;;;;;24.99;58.90;101811.44;5003717;28;20053;-81
2023/09/04 06:49:05;;;;;;;33.00;17.52;;;;;;;25.20;58.92;101845.84;5009860;28;20053;-81
2023/09/04 06:51:32;;;;;;;26.75;16.38;;;;;;;25.27;58.84;101841.25;5000835;28;20053;-81
2023/09/04 06:53:59;;;;;;;27.55;17.45;;;;;;;24.95;58.27;101773.00;5004598;28;20081;-80
2023/09/04 06:56:25;;;;;;;28.38;17.45;;;;;;;25.32;57.97;101827.06;5011039;28;20232;-80
2023/09/04 06:58:54;;;;;;;25.42;16.77;;;;;;;25.13;58.25;101790.59;5000701;28;20606;-80
2023/09/04 07:01:20;;;;;;;29.33;17.75;;;;;;;25.63;57.75;101845.50;5008193;28;20068;-81
2023/09/04 07:03:48;;;;;;;23.20;16.50;;;;;;;25.61;58.24;101844.03;4999278;28;20060;-80
2023/09/04 07:06:14;;;;;;;28.25;16.60;;;;;;;25.58;57.83;101823.53;4982871;28;20542;-79
2023/09/04 07:08:41;;;;;;;35.50;19.67;;;;;;;25.76;58.19;101853.72;4999447;28;20053;-81
2023/09/04 07:11:08;;;;;;;26.30;15.75;;;;;;;25.88;57.91;101855.84;5003369;28;20057;-82
2023/09/04 07:13:38;;;;;;;29.42;15.98;;;;;;;25.92;57.72;101866.09;5001597;28;20189;-79
2023/09/04 07:16:04;;;;;;;28.00;17.13;;;;;;;25.96;57.99;101851.03;5004730;28;20061;-82
2023/09/04 07:18:32;;;;;;;26.13;16.10;;;;;;;26.16;57.66;101869.25;5014191;28;20628;-81
2023/09/04 07:20:59;;;;;;;22.25;15.02;;;;;;;26.15;58.05;101876.59;4996104;28;20143;-81
2023/09/04 07:23:27;;;;;;;18.05;13.88;;;;;;;25.95;57.85;101856.72;5024979;28;20045;-80
2023/09/04 07:25:56;;;;;;;19.73;14.40;;;;;;;25.59;57.53;101771.69;4992133;28;20041;-81
2023/09/04 07:28:23;;;;;;;21.23;13.18;;;;;;;26.19;57.77;101887.88;4987726;28;20045;-82
2023/09/04 07:31:12;;;;;;;21.63;14.27;;;;;;;26.22;57.58;101869.25;5001797;28;20161;-79
2023/09/04 07:33:39;;;;;;;22.55;13.38;;;;;;;26.12;57.97;101860.69;5009604;28;20048;-80
2023/09/04 07:36:09;;;;;;;23.35;13.95;;;;;;;26.23;57.84;101857.31;4993492;28;20046;-80
2023/09/04 07:38:36;;;;;;;20.35;12.32;;;;;;;26.22;57.88;101850.22;4991248;28;20356;-79
2023/09/04 07:41:04;;;;;;;14.45;11.32;;;;;;;25.90;57.95;101792.03;4990356;28;20053;-79
2023/09/04 07:43:31;;;;;;;16.45;10.75;;;;;;;26.46;58.07;101888.72;4993156;28;20060;-79
2023/09/04 07:46:00;;;;;;;19.95;12.05;;;;;;;26.14;57.94;101823.22;4989580;28;20434;-79
2023/09/04 07:48:27;;;;;;;17.02;9.57;;;;;;;26.41;55.40;101820.47;4978132;28;20135;-81
2023/09/04 07:50:54;;;;;;;18.23;10.75;;;;;;;26.79;55.60;101866.88;4961768;28;20053;-79
2023/09/04 07:53:21;;;;;;;13.18;9.25;;;;;;;26.73;55.72;101873.22;4955996;28;20423;-83
2023/09/04 07:55:49;;;;;;;15.23;9.38;;;;;;;26.74;55.38;101869.41;4977321;28;20049;-80
2023/09/04 07:58:20;;;;;;;23.02;10.10;;;;;;;26.66;55.12;101849.75;4968071;28;20045;-80
2023/09/04 08:18:07;;;;;;;13.77;7.97;;;;;;;27.69;50.61;101877.00;5038531;28;20414;-81
2023/09/04 08:20:36;;;;;;;13.05;7.13;;;;;;;27.53;49.36;101834.75;5021869;28;20270;-81
2023/09/04 08:23:04;;;;;;;12.07;6.70;;;;;;;27.41;48.83;101826.41;5011273;28;20052;-79
2023/09/04 08:25:31;;;;;;;7.90;5.95;;;;;;;27.76;46.58;101861.44;4994446;28;20107;-80
2023/09/04 08:28:03;;;;;;;12.15;6.32;;;;;;;27.78;46.12;101881.16;4988992;28;20452;-79
2023/09/04 08:34:11;;;;;;;6.90;5.28;;;;;;;27.78;44.72;101870.22;5007868;28;20055;-78
2023/09/04 08:36:38;;;;;;;11.20;6.13;;;;;;;27.36;44.93;101828.97;5000147;28;20049;-81
2023/09/04 08:39:05;;;;;;;11.95;5.47;;;;;;;27.73;45.40;101877.41;5007462;28;20050;-79
2023/09/04 08:41:37;;;;;;;13.98;7.88;;;;;;;27.76;45.29;101880.53;4989584;28;20099;-85
2023/09/04 08:44:04;;;;;;;17.00;7.07;;;;;;;27.70;45.65;101862.31;4986181;28;20515;-84
2023/09/04 08:46:32;;;;;;;17.92;5.93;;;;;;;27.75;45.04;101853.50;4985767;28;20427;-85
2023/09/04 08:49:01;;;;;;;7.07;5.93;;;;;;;27.81;44.91;101869.78;4985579;28;20586;-85
2023/09/04 08:55:09;;;;;;;6.78;5.85;;;;;;;27.80;44.44;101851.75;5028227;28;20052;-87
2023/09/04 08:57:35;;;;;;;10.65;6.03;;;;;;;27.74;44.48;101841.72;5006508;28;20378;-85
2023/09/04 09:00:02;;;;;;;10.43;5.80;;;;;;;28.03;44.67;101866.72;4984365;28;20516;-87
2023/09/04 09:02:29;;;;;;;11.70;5.40;;;;;;;27.83;44.04;101834.97;4986822;28;20053;-86
2023/09/04 09:05:00;;;;;;;11.02;6.10;;;;;;;28.10;43.56;101868.34;4989789;28;20691;-86
2023/09/04 09:07:28;;;;;;;14.25;6.65;;;;;;;28.18;44.02;101880.91;5010071;28;20056;-84
2023/09/04 09:10:02;;;;;;;15.10;6.22;;;;;;;28.29;43.78;101877.41;5007625;28;20247;-85
2023/09/04 09:12:29;;;;;;;14.85;6.25;;;;;;;28.34;43.94;101866.66;5005158;28;20076;-86
2023/09/04 09:15:00;;;;;;;11.40;6.00;;;;;;;28.28;43.55;101870.31;5011362;28;20049;-87
2023/09/04 09:17:27;;;;;;;10.82;5.55;;;;;;;28.07;43.38;101843.41;5005417;28;20061;-80
2023/09/04 09:19:57;;;;;;;11.15;5.63;;;;;;;28.34;42.93;101874.84;4992303;28;20049;-83
2023/09/04 10:04:34;;;;;;;10.02;4.80;;;;;;;29.97;38.54;101847.81;5011330;28;20350;-82
2023/09/04 10:07:04;;;;;;;10.27;5.13;;;;;;;29.86;38.31;101810.34;4973618;28;20045;-82
2023/09/04 10:09:45;;;;;;;7.68;5.53;;;;;;;30.24;38.71;101855.59;4957332;28;20099;-82
2023/09/04 10:12:33;;;;;;;10.38;4.93;;;;;;;30.21;38.17;101825.94;4946101;28;20119;-83
2023/09/04 10:15:03;;;;;;;9.68;5.07;;;;;;;30.51;37.19;101839.53;4983770;28;20527;-84
2023/09/04 10:17:36;;;;;;;10.02;4.53;;;;;;;30.66;36.64;101858.25;4960340;28;20955;-83
2023/09/04 10:20:06;;;;;;;10.38;5.22;;;;;;;29.85;37.06;101701.91;4956628;28;20137;-83
2023/09/04 10:22:43;;;;;;;7.65;4.97;;;;;;;30.24;36.78;101768.81;4959609;28;20451;-84
2023/09/04 10:25:42;;;;;;;10.23;4.60;;;;;;;30.47;36.55;101791.78;4943561;28;20058;-82
2023/09/04 10:28:32;;;;;;;12.82;5.00;;;;;;;30.88;36.94;101848.31;4957226;28;20049;-79
2023/09/04 10:31:15;;;;;;;15.50;5.85;;;;;;;30.80;36.18;101802.09;4985247;28;20092;-82
2023/09/04 10:33:47;;;;;;;9.05;4.68;;;;;;;31.15;36.03;101838.72;4963360;28;20118;-81
2023/09/04 10:36:20;;;;;;;7.47;4.60;;;;;;;30.61;35.75;101746.59;4977376;28;20141;-81
2023/09/04 10:38:55;;;;;;;8.35;4.57;;;;;;;31.29;35.62;101835.44;4973564;28;20410;-81
2023/09/04 10:41:31;;;;;;;13.50;4.63;;;;;;;31.66;35.23;101851.50;4974402;28;20128;-81
2023/09/04 10:43:58;;;;;;;12.68;4.57;;;;;;;31.39;35.43;101792.81;4985465;28;20057;-78
2023/09/04 10:46:25;;;;;;;11.02;4.70;;;;;;;31.44;35.48;101776.47;4961934;28;20131;-80
2023/09/04 10:48:54;;;;;;;13.15;4.95;;;;;;;32.10;35.02;101848.97;4973263;28;20050;-80
2023/09/04 10:51:32;;;;;;;10.85;4.93;;;;;;;32.04;34.04;101819.75;4958261;28;20049;-78
2023/09/04 10:54:26;;;;;;;6.30;4.43;;;;;;;31.77;34.08;101769.31;4979333;28;20377;-78
2023/09/04 10:57:11;;;;;;;9.48;4.97;;;;;;;32.24;34.84;101826.66;4977845;28;20070;-81
2023/09/04 10:59:53;;;;;;;9.05;4.63;;;;;;;32.06;33.58;101779.13;4970215;28;20466;-80
2023/09/04 11:02:29;;;;;;;7.95;4.53;;;;;;;32.35;33.50;101820.19;4969043;28;20472;-80
2023/09/04 11:04:58;;;;;;;9.27;4.32;;;;;;;32.30;33.65;101817.38;4966845;28;20385;-81
2023/09/04 11:07:27;;;;;;;9.00;4.13;;;;;;;32.44;34.20;101810.44;4946761;28;20558;-78
2023/09/04 11:10:14;;;;;;;7.97;4.72;;;;;;;32.56;33.04;101789.19;4955038;28;20302;-79
2023/09/04 11:12:46;;;;;;;6.75;4.93;;;;;;;32.60;33.70;101777.69;4959598;28;20056;-78
2023/09/04 11:15:17;;;;;;;6.80;4.75;;;;;;;32.92;33.45;101814.38;4967203;28;20428;-82
2023/09/04 11:17:46;;;;;;;7.28;4.65;;;;;;;32.94;33.02;101806.72;4967594;28;20082;-78
2023/09/04 11:20:15;;;;;;;6.60;3.92;;;;;;;32.97;33.24;101788.84;4978828;28;20050;-79
2023/09/04 11:22:52;;;;;;;5.82;4.13;;;;;;;33.18;32.84;101789.91;4969135;28;20045;-82
2023/09/04 11:25:21;;;;;;;5.15;3.92;;;;;;;33.32;32.70;101799.41;4970765;28;20505;-81
2023/09/04 11:27:53;;;;;;;10.85;4.68;;;;;;;32.94;32.67;101739.84;4961551;28;20304;-82
2023/09/04 11:30:25;;;;;;;14.60;5.05;;;;;;;33.25;33.18;101782.28;4968892;28;20054;-81
2023/09/04 11:32:52;;;;;;;12.77;5.95;;;;;;;33.26;32.81;101774.88;4989371;28;20482;-81
2023/09/04 11:35:22;;;;;;;7.97;4.68;;;;;;;33.54;32.17;101795.75;4967282;28;20169;-82
2023/09/04 11:37:49;;;;;;;8.85;4.78;;;;;;;33.36;32.44;101774.97;4971556;28;20438;-80
2023/09/04 11:40:16;;;;;;;5.60;4.63;;;;;;;33.57;31.89;101795.25;4962941;28;20375;-81
2023/09/04 11:42:43;;;;;;;5.70;4.57;;;;;;;33.61;32.04;101793.66;4958028;28;20053;-81
2023/09/04 11:45:10;;;;;;;6.47;3.92;;;;;;;33.59;31.96;101762.81;4978423;28;20147;-81
2023/09/04 11:47:50;;;;;;;7.18;4.55;;;;;;;33.61;31.49;101750.44;4967760;28;20062;-81
2023/09/04 11:50:17;;;;;;;7.53;4.22;;;;;;;34.11;31.61;101781.38;4959270;28;20455;-81
2023/09/04 11:52:46;;;;;;;11.55;4.55;;;;;;;34.39;31.03;101779.31;4958982;28;20057;-79
2023/09/04 11:55:13;;;;;;;6.88;4.70;;;;;;;33.83;31.23;101673.19;4961905;28;20297;-79
2023/09/04 11:57:43;;;;;;;11.82;4.65;;;;;;;34.66;30.98;101777.28;4956935;28;20058;-80
2023/09/04 12:00:12;;;;;;;8.25;5.15;;;;;;;34.95;30.62;101790.59;4955539;28;20062;-82
2023/09/04 12:02:43;;;;;;;7.25;4.40;;;;;;;34.53;30.23;101703.31;4967453;28;20488;-81
2023/09/04 12:05:14;;;;;;;9.27;4.28;;;;;;;34.66;29.71;101694.56;4961889;28;20072;-80
2023/09/04 12:07:41;;;;;;;6.72;4.03;;;;;;;34.76;29.84;101710.31;4960515;28;20389;-80
2023/09/04 12:10:10;;;;;;;8.57;4.22;;;;;;;34.78;30.11;101701.72;4968460;28;20046;-78
2023/09/04 12:12:38;;;;;;;9.80;4.38;;;;;;;35.39;29.73;101773.59;4966471;28;20376;-79
2023/09/04 12:15:11;;;;;;;5.65;4.68;;;;;;;35.22;29.74;101746.25;4958699;28;20559;-81
2023/09/04 12:17:49;;;;;;;5.35;4.30;;;;;;;35.38;29.78;101769.16;4964296;28;20531;-83
2023/09/04 12:20:16;;;;;;;7.53;3.97;;;;;;;35.40;29.87;101766.13;4969058;28;20108;-79
2023/09/04 12:22:54;;;;;;;6.40;4.18;;;;;;;34.93;29.53;101659.56;4962502;28;20140;-80
2023/09/04 12:25:32;;;;;;;7.07;3.90;;;;;;;35.21;29.61;101724.44;4973246;28;20065;-80
2023/09/04 12:27:59;;;;;;;5.38;4.47;;;;;;;34.83;29.88;101657.59;4979120;28;20481;-80